Time;durP1;ratioP1;P1;durP2;ratioP2;P2;SDS_P1;SDS_P2;PMS_P1;PMS_P2;Temp;Humidity;BMP_temperature;BMP_pressure;BME280_temperature;BME280_humidity;BME280_pressure;Samples;Min_cycle;Max_cycle;Signal;HPM_P1;HPM_P2
2021/10/11 00:01:10;;;;;;;53.50;24.65;;;;;;;19.60;46.49;102357.22;5045057;28;20085;-59
2021/10/11 00:03:35;;;;;;;46.17;22.45;;;;;;;19.60;46.47;102368.09;5043518;28;20132;-59
2021/10/11 00:06:00;;;;;;;53.25;24.10;;;;;;;19.61;46.82;102358.94;5028609;28;20029;-58
2021/10/11 00:08:26;;;;;;;49.78;24.15;;;;;;;19.62;46.52;102357.94;5044282;28;20029;-59
2021/10/11 00:10:58;;;;;;;45.95;22.83;;;;;;;19.63;47.21;102365.94;5036900;28;20025;-59
2021/10/11 00:13:23;;;;;;;52.10;24.52;;;;;;;19.60;46.83;102346.34;5021296;28;20071;-59
2021/10/11 00:15:48;;;;;;;58.78;25.63;;;;;;;19.64;47.13;102359.50;5041755;28;20470;-59
2021/10/11 00:18:14;;;;;;;51.60;24.17;;;;;;;19.64;46.92;102350.47;5041509;28;20474;-59
2021/10/11 00:20:40;;;;;;;49.50;23.85;;;;;;;19.66;46.75;102357.47;5042902;28;20032;-59
2021/10/11 00:23:05;;;;;;;53.50;24.45;;;;;;;19.68;46.88;102366.31;5027897;28;20385;-58
2021/10/11 00:25:30;;;;;;;59.00;25.25;;;;;;;19.68;46.56;102360.88;5029342;28;20033;-58
2021/10/11 00:27:56;;;;;;;51.10;24.30;;;;;;;19.69;46.82;102367.19;5041732;28;20402;-59
2021/10/11 00:30:21;;;;;;;47.15;24.23;;;;;;;19.68;47.31;102360.88;5044066;28;20109;-59
2021/10/11 00:32:47;;;;;;;49.58;24.27;;;;;;;19.69;46.89;102361.75;5046473;28;20433;-58
2021/10/11 00:35:12;;;;;;;49.83;25.02;;;;;;;19.69;47.21;102354.47;5025952;28;20111;-59
2021/10/11 00:37:38;;;;;;;47.58;24.80;;;;;;;19.69;47.20;102345.44;5043058;28;20068;-58
2021/10/11 00:40:05;;;;;;;55.20;25.38;;;;;;;19.69;47.31;102350.88;5024440;28;20064;-59
2021/10/11 00:42:31;;;;;;;49.20;24.10;;;;;;;19.70;47.33;102347.16;5027633;28;20055;-59
2021/10/11 00:44:56;;;;;;;48.53;24.80;;;;;;;19.68;47.21;102351.91;5043083;28;20103;-58
2021/10/11 00:47:22;;;;;;;46.22;24.50;;;;;;;19.68;47.37;102352.72;5041015;28;20056;-59
2021/10/11 00:49:47;;;;;;;51.80;23.98;;;;;;;19.70;47.42;102360.75;5036731;28;20029;-59
2021/10/11 00:52:13;;;;;;;51.70;23.58;;;;;;;19.70;47.14;102363.47;5036768;28;20057;-59
2021/10/11 00:54:38;;;;;;;52.75;25.35;;;;;;;19.70;47.27;102358.03;5036714;28;20432;-59
2021/10/11 00:57:03;;;;;;;53.03;25.33;;;;;;;19.70;47.15;102366.19;5036757;28;20104;-59
2021/10/11 00:59:29;;;;;;;49.17;24.38;;;;;;;19.72;47.76;102366.88;5036844;28;20033;-59
2021/10/11 01:01:54;;;;;;;47.42;24.10;;;;;;;19.70;47.59;102368.91;5036800;28;20068;-59
2021/10/11 01:04:19;;;;;;;51.90;26.02;;;;;;;19.70;47.74;102367.06;5019413;28;20083;-59
2021/10/11 01:06:45;;;;;;;49.05;24.40;;;;;;;19.70;47.42;102350.75;5037011;28;20025;-59
2021/10/11 01:09:11;;;;;;;51.97;24.17;;;;;;;19.72;47.74;102347.84;5037253;28;20029;-59
2021/10/11 01:11:37;;;;;;;52.35;24.33;;;;;;;19.71;47.68;102352.44;5037400;28;20077;-58
2021/10/11 01:14:04;;;;;;;48.20;25.05;;;;;;;19.73;47.74;102357.75;5037799;28;20091;-60
2021/10/11 01:16:29;;;;;;;48.63;24.15;;;;;;;19.72;47.79;102365.03;5019066;28;20030;-58
2021/10/11 01:18:55;;;;;;;55.95;25.98;;;;;;;19.67;47.99;102358.34;5036635;28;20036;-59
2021/10/11 01:21:21;;;;;;;54.10;25.17;;;;;;;19.73;47.76;102363.19;5036696;28;20142;-59
2021/10/11 01:23:47;;;;;;;50.83;24.23;;;;;;;19.73;47.98;102360.47;5018624;28;20083;-59
2021/10/11 01:26:12;;;;;;;60.78;26.02;;;;;;;19.70;47.88;102356.19;5018555;28;20025;-59
2021/10/11 01:28:37;;;;;;;52.97;24.52;;;;;;;19.74;48.00;102354.00;5036441;28;20044;-59
2021/10/11 01:31:03;;;;;;;56.10;24.73;;;;;;;19.73;48.26;102358.59;5036023;28;20017;-59
2021/10/11 01:33:28;;;;;;;55.83;26.73;;;;;;;19.75;48.41;102367.44;5035153;28;20030;-59
2021/10/11 01:35:53;;;;;;;53.08;24.13;;;;;;;19.72;47.98;102356.88;5036464;28;20101;-58
2021/10/11 01:38:19;;;;;;;51.13;24.67;;;;;;;19.76;47.81;102357.44;5035920;28;20083;-59
2021/10/11 01:40:44;;;;;;;53.25;23.63;;;;;;;19.76;48.12;102355.56;5018394;28;20545;-59
2021/10/11 01:43:10;;;;;;;51.83;24.98;;;;;;;19.75;48.08;102356.56;5036267;28;20033;-58
2021/10/11 01:45:36;;;;;;;48.45;24.63;;;;;;;19.76;48.32;102357.44;5018007;28;20029;-59
2021/10/11 01:48:05;;;;;;;49.63;23.88;;;;;;;19.66;48.03;102340.28;5035846;28;20029;-58
2021/10/11 01:50:31;;;;;;;50.88;22.65;;;;;;;19.75;48.69;102350.28;5036417;28;20161;-58
2021/10/11 01:52:57;;;;;;;54.03;24.55;;;;;;;19.75;48.27;102351.13;5035967;28;20450;-59
2021/10/11 01:55:22;;;;;;;47.90;22.88;;;;;;;19.76;48.50;102355.56;5035867;28;20041;-59
2021/10/11 01:57:48;;;;;;;46.83;23.63;;;;;;;19.78;48.89;102358.13;5035923;28;20359;-59
2021/10/11 02:00:13;;;;;;;49.22;23.73;;;;;;;19.74;48.74;102343.13;5035151;28;20021;-59
2021/10/11 02:02:39;;;;;;;54.33;25.08;;;;;;;19.78;48.58;102344.53;5017432;28;20030;-59
2021/10/11 02:05:05;;;;;;;54.03;24.52;;;;;;;19.74;48.21;102351.28;5035799;28;20030;-58
2021/10/11 02:07:30;;;;;;;50.78;24.15;;;;;;;19.77;48.71;102354.56;5036077;28;20163;-59
2021/10/11 02:09:56;;;;;;;49.45;23.02;;;;;;;19.78;48.43;102355.41;5035589;28;20465;-58
2021/10/11 02:12:22;;;;;;;43.28;23.05;;;;;;;19.79;48.59;102354.41;5035556;28;20021;-59
2021/10/11 02:14:48;;;;;;;51.80;24.35;;;;;;;19.80;48.88;102358.84;5035922;28;20048;-59
2021/10/11 02:17:14;;;;;;;55.80;25.23;;;;;;;19.81;48.64;102360.56;5035548;28;20391;-58
2021/10/11 02:19:39;;;;;;;52.47;24.75;;;;;;;19.82;49.10;102355.97;5035587;28;20025;-58
2021/10/11 02:22:04;;;;;;;52.17;24.58;;;;;;;19.83;48.84;102353.09;5017838;28;20056;-59
2021/10/11 02:24:30;;;;;;;53.30;23.42;;;;;;;19.85;48.77;102353.78;5031197;28;20486;-59
2021/10/11 02:26:55;;;;;;;50.70;24.60;;;;;;;19.86;48.70;102355.50;5034977;28;20049;-59
2021/10/11 02:29:20;;;;;;;53.55;24.20;;;;;;;19.90;48.50;102350.63;5035294;28;20386;-58
2021/10/11 02:31:46;;;;;;;52.25;24.02;;;;;;;19.89;48.97;102347.03;5017359;28;20036;-59
2021/10/11 02:34:11;;;;;;;55.03;24.80;;;;;;;19.91;49.29;102347.75;5034785;28;20049;-59
2021/10/11 02:36:37;;;;;;;54.30;24.70;;;;;;;19.93;49.23;102343.03;5034858;28;20029;-58
2021/10/11 02:39:03;;;;;;;49.85;24.55;;;;;;;19.89;49.15;102336.16;5035096;28;20040;-59
2021/10/11 02:41:28;;;;;;;53.33;23.90;;;;;;;19.95;49.60;102338.28;5035983;28;20035;-59
2021/10/11 02:43:54;;;;;;;57.10;26.50;;;;;;;19.98;48.87;102346.13;5018097;28;20382;-58
2021/10/11 02:46:19;;;;;;;49.22;23.85;;;;;;;19.99;49.55;102336.13;5034563;28;20029;-59
2021/10/11 02:48:45;;;;;;;54.90;24.73;;;;;;;20.00;48.86;102349.56;5035488;28;20025;-58
2021/10/11 02:51:10;;;;;;;50.95;23.88;;;;;;;20.01;49.41;102350.41;5034788;28;20427;-58
2021/10/11 02:53:36;;;;;;;53.10;24.13;;;;;;;20.00;49.54;102349.56;5016986;28;20064;-59
2021/10/11 02:56:01;;;;;;;62.05;26.05;;;;;;;20.02;49.25;102355.69;5034662;28;20056;-58
2021/10/11 02:58:26;;;;;;;52.72;23.63;;;;;;;20.03;49.58;102348.38;5033662;28;20110;-59
2021/10/11 03:00:51;;;;;;;52.42;24.83;;;;;;;20.04;49.09;102345.53;5034500;28;20034;-58
2021/10/11 03:03:17;;;;;;;48.90;23.52;;;;;;;20.04;49.02;102341.94;5034670;28;20036;-59
2021/10/11 03:05:42;;;;;;;57.25;24.48;;;;;;;20.03;49.27;102341.09;5017303;28;20025;-58
2021/10/11 03:08:07;;;;;;;57.55;24.98;;;;;;;20.03;49.85;102335.66;5034453;28;20462;-58
2021/10/11 03:10:33;;;;;;;51.22;23.88;;;;;;;20.03;49.90;102330.19;5034474;28;20025;-58
2021/10/11 03:12:58;;;;;;;51.03;23.52;;;;;;;20.07;49.38;102339.75;5036788;28;20029;-59
2021/10/11 03:15:23;;;;;;;44.70;21.17;;;;;;;20.08;49.61;102340.63;5038875;28;20022;-59
2021/10/11 03:17:49;;;;;;;45.30;20.60;;;;;;;20.09;49.34;102334.16;5038759;28;20079;-59
2021/10/11 03:20:14;;;;;;;41.22;19.25;;;;;;;20.10;49.54;102339.44;5038412;28;20025;-58
2021/10/11 03:22:40;;;;;;;53.30;20.23;;;;;;;20.09;49.74;102337.75;5038467;28;20025;-59
2021/10/11 03:25:06;;;;;;;39.75;19.35;;;;;;;20.11;49.39;102338.44;5021056;28;20112;-59
2021/10/11 03:27:31;;;;;;;43.13;19.25;;;;;;;20.11;49.82;102330.28;5022108;28;20029;-59
2021/10/11 03:29:59;;;;;;;48.67;18.60;;;;;;;20.11;49.97;102335.72;5039593;28;20079;-59
2021/10/11 03:32:25;;;;;;;43.28;18.25;;;;;;;20.12;50.08;102337.44;5039697;28;20025;-58
2021/10/11 03:34:50;;;;;;;42.70;18.20;;;;;;;20.13;50.08;102339.13;5039336;28;20025;-58
2021/10/11 03:37:17;;;;;;;32.10;15.85;;;;;;;20.14;49.16;102350.88;5020847;28;20061;-59
2021/10/11 03:39:42;;;;;;;36.42;15.18;;;;;;;20.14;50.09;102348.16;5037886;28;20040;-59
2021/10/11 03:42:08;;;;;;;33.58;16.05;;;;;;;20.13;49.79;102347.31;5038134;28;20397;-58
2021/10/11 03:44:33;;;;;;;30.50;13.50;;;;;;;20.12;49.35;102342.88;5038155;28;20104;-59
2021/10/11 03:46:58;;;;;;;29.92;13.70;;;;;;;20.14;50.14;102340.88;5038279;28;20029;-59
2021/10/11 03:49:24;;;;;;;33.13;14.80;;;;;;;20.15;50.22;102342.59;5038618;28;20014;-58
2021/10/11 03:51:49;;;;;;;35.33;15.38;;;;;;;20.16;50.04;102338.84;5021651;28;20029;-59
2021/10/11 03:54:22;;;;;;;31.33;13.20;;;;;;;20.15;49.97;102342.59;5022724;28;20053;-59
2021/10/11 03:56:48;;;;;;;28.45;13.93;;;;;;;20.14;49.98;102338.13;5038258;28;20080;-59
2021/10/11 03:59:13;;;;;;;30.50;13.63;;;;;;;20.15;49.94;102336.28;5020732;28;20057;-59
2021/10/11 04:01:39;;;;;;;29.40;13.20;;;;;;;20.14;50.07;102337.28;5038322;28;20386;-59
2021/10/11 04:04:06;;;;;;;27.90;12.88;;;;;;;20.14;49.80;102331.84;5037842;28;20171;-58
2021/10/11 04:06:32;;;;;;;26.45;12.45;;;;;;;20.13;50.09;102327.41;5037619;28;20037;-60
2021/10/11 04:08:59;;;;;;;24.98;11.63;;;;;;;20.13;49.96;102328.25;5037581;28;20036;-58
2021/10/11 04:11:24;;;;;;;24.02;10.60;;;;;;;20.12;50.02;102332.00;5037531;28;20025;-59
2021/10/11 04:13:50;;;;;;;23.13;9.75;;;;;;;20.13;50.04;102335.56;5037732;28;20025;-59
2021/10/11 04:16:16;;;;;;;18.75;8.52;;;;;;;20.10;50.15;102333.19;5037434;28;20386;-59
2021/10/11 04:18:41;;;;;;;22.92;9.80;;;;;;;20.10;50.18;102334.00;5037264;28;20025;-59
2021/10/11 04:21:07;;;;;;;29.77;10.88;;;;;;;20.13;50.43;102336.41;5037269;28;20026;-59
2021/10/11 04:23:32;;;;;;;20.58;8.73;;;;;;;20.14;50.01;102340.00;5037081;28;20022;-58
2021/10/11 04:25:58;;;;;;;19.10;8.57;;;;;;;20.13;50.50;102332.84;5037018;28;20087;-58
2021/10/11 04:28:24;;;;;;;20.65;8.68;;;;;;;20.12;50.03;102332.00;5037101;28;20044;-59
2021/10/11 04:30:49;;;;;;;16.80;7.70;;;;;;;20.13;50.34;102338.28;5037204;28;20453;-59
2021/10/11 04:33:15;;;;;;;18.08;8.15;;;;;;;20.15;50.32;102339.00;5037140;28;20112;-59
2021/10/11 04:35:40;;;;;;;17.73;8.07;;;;;;;20.16;50.22;102348.84;5037435;28;20032;-58
2021/10/11 04:38:06;;;;;;;16.80;7.85;;;;;;;20.12;50.36;102342.88;5037695;28;20021;-59
2021/10/11 04:40:32;;;;;;;17.50;6.75;;;;;;;20.11;50.27;102341.16;5003147;28;20087;-59
2021/10/11 04:42:58;;;;;;;20.13;7.55;;;;;;;20.13;50.60;102344.56;5037029;28;20056;-60
2021/10/11 04:45:28;;;;;;;14.70;6.55;;;;;;;20.12;50.35;102347.47;5019306;28;20112;-59
2021/10/11 04:47:58;;;;;;;16.02;6.82;;;;;;;20.13;50.61;102350.03;5036848;28;20021;-58
2021/10/11 04:50:24;;;;;;;14.80;6.32;;;;;;;20.13;50.70;102350.03;5036965;28;20047;-59
2021/10/11 04:52:49;;;;;;;15.43;6.50;;;;;;;20.10;50.11;102342.16;5036708;28;20100;-59
2021/10/11 04:55:15;;;;;;;9.43;4.97;;;;;;;20.09;50.33;102350.50;5036515;28;20525;-58
2021/10/11 04:57:40;;;;;;;16.17;5.75;;;;;;;20.09;50.59;102347.78;5019233;28;20052;-59
2021/10/11 05:00:08;;;;;;;12.25;5.53;;;;;;;20.10;50.41;102355.78;5036491;28;20060;-59
2021/10/11 05:02:33;;;;;;;12.52;5.45;;;;;;;20.11;50.00;102352.06;5002533;28;20067;-59
2021/10/11 05:04:59;;;;;;;16.90;5.65;;;;;;;20.09;50.40;102347.78;5036527;28;20105;-59
2021/10/11 05:07:24;;;;;;;12.25;4.45;;;;;;;20.11;50.61;102351.19;5036568;28;20036;-59
2021/10/11 05:09:49;;;;;;;9.07;4.38;;;;;;;20.12;50.67;102358.34;5036551;28;20021;-59
2021/10/11 05:12:15;;;;;;;13.60;4.97;;;;;;;20.11;50.08;102357.50;5036421;28;20025;-58
2021/10/11 05:14:40;;;;;;;12.85;4.82;;;;;;;20.08;50.68;102368.69;5036459;28;20066;-58
2021/10/11 05:17:05;;;;;;;15.50;4.32;;;;;;;20.08;50.12;102379.56;5036921;28;20470;-59
2021/10/11 05:19:31;;;;;;;14.35;4.22;;;;;;;20.08;49.93;102387.72;5002201;28;20371;-58
2021/10/11 05:21:56;;;;;;;9.88;5.00;;;;;;;20.06;50.69;102381.59;5036462;28;20036;-58
2021/10/11 05:24:25;;;;;;;15.43;4.57;;;;;;;20.06;50.34;102392.47;5036497;28;20029;-59
2021/10/11 05:26:52;;;;;;;7.45;3.33;;;;;;;20.05;49.94;102387.16;5036047;28;20025;-58
2021/10/11 05:29:18;;;;;;;7.25;3.60;;;;;;;20.05;50.78;102389.88;5035594;28;20493;-58
2021/10/11 05:31:43;;;;;;;9.57;3.83;;;;;;;20.05;50.41;102395.31;5035458;28;20029;-58
2021/10/11 05:34:09;;;;;;;9.77;4.55;;;;;;;20.02;50.10;102382.88;5035834;28;20021;-58
2021/10/11 05:36:34;;;;;;;9.57;5.15;;;;;;;20.03;50.23;102387.34;5016974;28;20096;-59
2021/10/11 05:38:59;;;;;;;8.93;3.35;;;;;;;19.97;50.10;102382.50;5035407;28;20021;-59
2021/10/11 05:41:25;;;;;;;11.48;3.95;;;;;;;19.98;50.32;102386.94;5035604;28;20414;-58
2021/10/11 05:43:50;;;;;;;11.77;3.60;;;;;;;19.98;49.89;102389.66;5035194;28;20076;-58
2021/10/11 05:46:16;;;;;;;11.43;3.35;;;;;;;19.98;50.23;102395.09;5035474;28;20036;-58
2021/10/11 05:48:41;;;;;;;11.48;4.75;;;;;;;19.97;50.58;102392.53;5034680;28;20106;-60
2021/10/11 05:51:06;;;;;;;7.18;3.15;;;;;;;19.98;50.24;102395.09;5048921;28;20037;-60
2021/10/11 05:53:32;;;;;;;10.60;3.67;;;;;;;20.00;50.91;102386.78;5054775;28;20061;-59
2021/10/11 05:55:57;;;;;;;18.15;3.53;;;;;;;19.94;50.16;102382.78;5055155;28;20052;-60
2021/10/11 05:58:22;;;;;;;9.55;2.83;;;;;;;19.99;49.94;102388.63;5037971;28;20029;-60
2021/10/11 06:00:48;;;;;;;11.75;4.65;;;;;;;19.97;50.09;102379.78;5054958;28;20044;-59
2021/10/11 06:03:13;;;;;;;9.13;2.50;;;;;;;19.99;50.12;102375.03;5054948;28;20028;-60
2021/10/11 06:05:39;;;;;;;10.25;3.08;;;;;;;19.99;49.75;102380.47;5054953;28;20025;-59
2021/10/11 06:08:04;;;;;;;8.13;2.45;;;;;;;19.97;50.53;102379.78;5054817;28;20056;-59
2021/10/11 06:10:29;;;;;;;10.20;3.10;;;;;;;19.92;50.11;102364.91;5054630;28;20044;-59
2021/10/11 06:12:55;;;;;;;10.18;3.40;;;;;;;19.93;49.70;102378.38;5054827;28;20619;-59
2021/10/11 06:15:20;;;;;;;7.65;2.75;;;;;;;19.90;49.24;102381.41;5037384;28;20048;-59
2021/10/11 06:17:46;;;;;;;6.30;2.83;;;;;;;19.91;49.54;102376.81;5054701;28;20028;-60
2021/10/11 06:20:12;;;;;;;10.35;3.00;;;;;;;19.87;50.21;102375.41;5054763;28;20028;-59
2021/10/11 06:22:37;;;;;;;8.38;2.97;;;;;;;19.87;49.75;102376.28;5054955;28;20025;-60
2021/10/11 06:25:04;;;;;;;5.68;2.72;;;;;;;19.86;49.46;102381.84;5054353;28;20470;-59
2021/10/11 06:27:30;;;;;;;8.80;3.20;;;;;;;19.83;49.38;102385.72;5054674;28;20025;-59
2021/10/11 06:29:55;;;;;;;8.50;2.80;;;;;;;19.79;49.41;102388.91;5054541;28;20021;-59
2021/10/11 06:32:21;;;;;;;11.27;2.55;;;;;;;19.76;49.40;102381.91;5036645;28;20231;-59
2021/10/11 06:34:46;;;;;;;7.18;2.55;;;;;;;19.78;49.30;102393.50;5048253;28;20029;-59
2021/10/11 06:37:11;;;;;;;9.82;3.20;;;;;;;19.76;49.54;102400.94;5034266;28;20033;-59
2021/10/11 06:39:37;;;;;;;7.78;3.13;;;;;;;19.75;49.35;102399.22;5016891;28;20033;-59
2021/10/11 06:42:02;;;;;;;6.78;2.45;;;;;;;19.69;49.48;102394.38;5036307;28;20037;-59
2021/10/11 06:44:29;;;;;;;7.38;2.70;;;;;;;19.73;48.52;102401.25;5045028;28;20029;-59
2021/10/11 06:46:54;;;;;;;5.80;2.33;;;;;;;19.72;49.11;102399.53;5054014;28;20029;-60
2021/10/11 06:49:19;;;;;;;11.43;3.72;;;;;;;19.74;49.52;102409.25;5054821;28;20024;-59
2021/10/11 06:51:45;;;;;;;11.85;2.20;;;;;;;19.79;48.95;102399.78;5032907;28;20481;-59
2021/10/11 06:54:10;;;;;;;9.15;2.97;;;;;;;19.86;48.77;102399.03;5054175;28;20402;-59
2021/10/11 06:56:35;;;;;;;7.47;2.30;;;;;;;19.91;48.57;102387.69;5036510;28;20071;-59
2021/10/11 06:59:01;;;;;;;7.70;1.98;;;;;;;20.01;48.94;102392.09;5054445;28;20048;-59
2021/10/11 07:01:27;;;;;;;8.20;2.65;;;;;;;20.10;49.04;102393.03;5053970;28;20025;-60
2021/10/11 07:03:52;;;;;;;5.88;1.92;;;;;;;20.19;49.01;102398.41;5054134;28;20565;-59
2021/10/11 07:06:21;;;;;;;10.65;2.63;;;;;;;20.24;48.89;102387.94;5044478;28;20026;-59
2021/10/11 07:08:46;;;;;;;10.95;2.67;;;;;;;20.36;48.46;102401.31;5043016;28;20083;-59
2021/10/11 07:11:12;;;;;;;6.07;2.42;;;;;;;20.46;48.64;102418.47;5034411;28;20462;-59
2021/10/11 07:13:38;;;;;;;8.40;2.45;;;;;;;20.60;48.97;102420.63;5033918;28;20075;-59
2021/10/11 07:16:04;;;;;;;7.95;2.50;;;;;;;20.72;48.82;102427.53;5033832;28;20079;-58
2021/10/11 07:18:36;;;;;;;9.85;2.38;;;;;;;20.84;48.56;102426.31;5034096;28;20385;-59
2021/10/11 07:21:06;;;;;;;7.97;1.92;;;;;;;21.02;48.31;102429.84;5034023;28;20026;-59
2021/10/11 07:23:32;;;;;;;7.25;2.35;;;;;;;21.09;47.82;102425.53;5033608;28;20033;-59
2021/10/11 07:26:00;;;;;;;4.88;2.20;;;;;;;21.15;48.16;102427.63;5033490;28;20429;-59
2021/10/11 07:28:26;;;;;;;5.55;2.13;;;;;;;21.25;48.07;102425.63;5033441;28;20087;-59
2021/10/11 07:30:52;;;;;;;4.00;1.95;;;;;;;21.29;47.87;102416.13;5033189;28;20470;-59
2021/10/11 07:33:18;;;;;;;8.20;1.95;;;;;;;21.42;47.79;102415.69;5033391;28;20049;-59
2021/10/11 07:35:44;;;;;;;7.68;1.88;;;;;;;21.57;47.26;102424.13;5033238;28;20018;-59
2021/10/11 07:38:09;;;;;;;11.57;2.10;;;;;;;21.69;47.28;102429.13;5033343;28;20048;-59
2021/10/11 07:40:35;;;;;;;6.80;2.35;;;;;;;21.80;46.84;102441.66;5033109;28;20114;-60
2021/10/11 07:43:00;;;;;;;9.75;2.47;;;;;;;21.91;46.87;102427.75;5032996;28;20455;-59
2021/10/11 07:45:25;;;;;;;9.32;1.80;;;;;;;22.09;46.46;102431.25;5032950;28;20040;-59
2021/10/11 07:47:51;;;;;;;3.95;1.70;;;;;;;22.27;47.08;102439.31;5033013;28;20155;-59
2021/10/11 07:50:16;;;;;;;5.03;2.28;;;;;;;22.45;46.71;102445.50;5015171;28;20025;-60
2021/10/11 07:52:42;;;;;;;8.00;2.35;;;;;;;22.65;46.39;102446.09;5034770;28;20030;-60
2021/10/11 07:55:08;;;;;;;5.93;1.60;;;;;;;22.76;46.68;102445.75;5035267;28;20529;-60
2021/10/11 07:57:33;;;;;;;5.90;2.83;;;;;;;22.79;45.83;102450.88;5015189;28;20037;-60
2021/10/11 08:00:03;;;;;;;7.82;1.75;;;;;;;22.80;46.76;102452.59;5039246;28;20036;-60
2021/10/11 08:02:28;;;;;;;3.50;1.50;;;;;;;22.80;45.92;102458.06;5056433;28;20102;-59
2021/10/11 08:04:54;;;;;;;17.35;2.63;;;;;;;22.82;45.99;102464.22;5038470;28;20068;-60
2021/10/11 08:07:19;;;;;;;4.90;1.88;;;;;;;22.82;46.45;102466.94;5056416;28;20090;-60
2021/10/11 08:09:44;;;;;;;3.55;1.88;;;;;;;22.82;45.70;102466.94;5056294;28;20028;-60
2021/10/11 08:12:10;;;;;;;9.23;1.85;;;;;;;22.81;45.44;102476.19;5056392;28;20017;-60
2021/10/11 08:14:36;;;;;;;6.70;2.25;;;;;;;22.89;46.09;102471.56;5056308;28;20488;-60
2021/10/11 08:17:01;;;;;;;8.57;1.95;;;;;;;22.96;45.91;102480.81;5056204;28;20081;-59
2021/10/11 08:19:27;;;;;;;4.88;1.58;;;;;;;23.00;45.92;102473.13;5038187;28;20029;-59
2021/10/11 08:21:53;;;;;;;5.97;1.50;;;;;;;23.16;44.67;102475.84;5056192;28;20029;-60
2021/10/11 08:24:18;;;;;;;4.68;1.30;;;;;;;23.33;44.38;102477.56;5056101;28;20534;-60
2021/10/11 08:26:44;;;;;;;3.38;1.08;;;;;;;23.39;44.70;102484.25;5056015;28;20031;-60
2021/10/11 08:29:09;;;;;;;9.05;1.42;;;;;;;23.43;45.09;102486.47;5056076;28;20025;-59
2021/10/11 08:31:34;;;;;;;9.07;1.05;;;;;;;23.44;45.03;102479.97;5021538;28;20049;-59
2021/10/11 08:34:00;;;;;;;6.25;1.48;;;;;;;23.47;44.90;102478.78;5055774;28;20029;-59
2021/10/11 08:36:25;;;;;;;3.78;1.20;;;;;;;23.52;44.73;102479.97;5056057;28;20021;-59
2021/10/11 08:38:51;;;;;;;6.90;1.40;;;;;;;23.52;44.46;102474.50;5055828;28;20031;-59
2021/10/11 08:41:16;;;;;;;4.10;1.20;;;;;;;23.56;45.11;102472.28;5056013;28;20428;-60
2021/10/11 08:43:44;;;;;;;5.22;1.35;;;;;;;23.61;44.47;102481.66;5055613;28;20390;-59
2021/10/11 08:46:09;;;;;;;4.80;1.23;;;;;;;23.66;43.81;102479.25;5055663;28;20107;-60
2021/10/11 08:48:34;;;;;;;9.15;1.98;;;;;;;23.66;44.40;102479.25;5055563;28;20108;-60
2021/10/11 08:51:01;;;;;;;7.45;1.52;;;;;;;23.72;43.70;102489.50;5055772;28;20017;-59
2021/10/11 08:53:26;;;;;;;13.20;1.35;;;;;;;23.71;43.62;102493.25;5055349;28;20056;-60
2021/10/11 08:55:52;;;;;;;9.95;1.17;;;;;;;23.79;44.15;102486.91;5055541;28;20385;-60
2021/10/11 08:58:17;;;;;;;5.88;1.60;;;;;;;23.92;43.60;102484.50;5055359;28;20025;-60
2021/10/11 09:00:43;;;;;;;4.72;1.13;;;;;;;24.04;43.71;102487.69;5055508;28;20112;-60
2021/10/11 09:03:09;;;;;;;4.68;1.02;;;;;;;24.17;43.21;102483.41;5055563;28;20466;-59
2021/10/11 09:05:36;;;;;;;9.43;1.30;;;;;;;24.52;43.18;102476.53;5055311;28;20077;-59
2021/10/11 09:08:05;;;;;;;10.88;1.27;;;;;;;24.60;42.65;102476.47;5055288;28;20029;-60
2021/10/11 09:10:32;;;;;;;8.10;1.10;;;;;;;24.60;42.67;102472.88;5055245;28;20379;-59
2021/10/11 09:12:58;;;;;;;4.40;1.45;;;;;;;24.54;42.57;102484.59;5055366;28;20021;-59
2021/10/11 09:15:28;;;;;;;9.07;0.75;;;;;;;24.48;42.34;102480.69;5055306;28;20047;-60
2021/10/11 09:18:02;;;;;;;8.30;1.58;;;;;;;24.48;42.50;102490.78;5055318;28;20103;-59
2021/10/11 09:20:29;;;;;;;9.35;1.08;;;;;;;24.54;42.36;102479.94;5054904;28;20450;-60
2021/10/11 09:22:56;;;;;;;4.45;1.23;;;;;;;24.66;42.14;102478.50;5055202;28;20024;-60
2021/10/11 09:25:31;;;;;;;3.85;0.82;;;;;;;24.85;41.81;102472.56;5054806;28;20024;-60
2021/10/11 09:27:57;;;;;;;3.85;0.80;;;;;;;24.98;41.39;102476.59;5054850;28;20441;-60
2021/10/11 09:30:27;;;;;;;3.13;0.75;;;;;;;25.63;40.74;102477.72;5054691;28;20048;-59
2021/10/11 09:33:06;;;;;;;3.67;1.63;;;;;;;26.17;40.34;102482.97;5054946;28;20103;-58
2021/10/11 09:35:32;;;;;;;8.73;1.38;;;;;;;26.87;39.42;102474.97;5054632;28;20492;-57
2021/10/11 09:37:57;;;;;;;7.20;1.30;;;;;;;27.52;38.42;102471.97;5054706;28;20507;-57
2021/10/11 09:40:24;;;;;;;9.27;1.15;;;;;;;27.88;38.67;102469.03;5054693;28;20037;-57
2021/10/11 09:42:50;;;;;;;9.65;1.20;;;;;;;27.98;38.06;102478.63;5042851;28;20032;-57
2021/10/11 09:45:15;;;;;;;4.18;1.13;;;;;;;27.69;38.48;102470.63;5016215;28;20034;-57
2021/10/11 09:47:46;;;;;;;7.60;0.77;;;;;;;27.43;39.30;102476.78;5033011;28;20051;-57
2021/10/11 09:50:14;;;;;;;6.45;1.40;;;;;;;27.21;39.12;102468.72;5034426;28;20052;-57
2021/10/11 09:52:41;;;;;;;8.02;1.02;;;;;;;26.98;39.44;102467.03;5034573;28;20025;-57
2021/10/11 09:55:08;;;;;;;2.75;1.00;;;;;;;26.86;38.94;102465.84;5016675;28;20045;-57
2021/10/11 09:57:34;;;;;;;4.65;0.77;;;;;;;26.65;39.50;102467.72;5034695;28;20037;-57
2021/10/11 10:00:03;;;;;;;3.40;0.75;;;;;;;26.47;38.72;102466.25;5046730;28;20477;-57
2021/10/11 10:02:31;;;;;;;4.68;0.85;;;;;;;26.25;39.25;102466.38;5054459;28;20020;-57
2021/10/11 10:04:58;;;;;;;4.78;1.70;;;;;;;26.11;39.24;102465.31;5054055;28;20025;-57
2021/10/11 10:07:26;;;;;;;11.63;2.22;;;;;;;26.00;39.06;102474.06;5036476;28;20106;-57
2021/10/11 10:09:53;;;;;;;4.55;1.25;;;;;;;25.89;39.41;102472.66;5053916;28;20469;-57
2021/10/11 10:12:18;;;;;;;1.98;0.68;;;;;;;25.84;39.27;102469.63;5036355;28;20554;-57
2021/10/11 10:14:43;;;;;;;4.88;1.10;;;;;;;25.81;39.00;102469.13;5036581;28;20048;-57
2021/10/11 10:17:09;;;;;;;4.78;1.20;;;;;;;25.72;38.56;102465.63;5036262;28;20078;-58
2021/10/11 10:19:39;;;;;;;3.28;0.98;;;;;;;25.64;39.25;102471.22;5053823;28;20036;-57
2021/10/11 10:22:17;;;;;;;9.13;1.38;;;;;;;25.60;38.90;102472.63;5053584;28;20021;-57
2021/10/11 10:24:42;;;;;;;6.72;1.60;;;;;;;25.52;39.14;102464.47;5054046;28;20384;-57
2021/10/11 10:27:10;;;;;;;3.88;1.10;;;;;;;25.42;39.27;102469.34;5053714;28;20037;-57
2021/10/11 10:29:43;;;;;;;13.77;1.58;;;;;;;25.33;38.81;102459.47;5054186;28;20503;-56
2021/10/11 10:32:10;;;;;;;4.55;0.82;;;;;;;25.23;39.38;102453.41;5053920;28;20108;-57
2021/10/11 10:34:36;;;;;;;5.18;0.82;;;;;;;25.16;39.05;102452.44;5053711;28;20381;-57
2021/10/11 10:37:11;;;;;;;5.47;1.13;;;;;;;25.08;39.60;102460.75;5053695;28;20047;-56
2021/10/11 10:39:45;;;;;;;7.60;1.50;;;;;;;25.03;39.25;102457.69;5053496;28;20032;-57
2021/10/11 10:42:26;;;;;;;5.38;1.20;;;;;;;24.89;39.61;102460.22;5053969;28;20039;-59
2021/10/11 10:44:52;;;;;;;7.22;1.33;;;;;;;24.84;39.24;102459.91;5053663;28;20025;-59
2021/10/11 10:47:17;;;;;;;3.45;0.93;;;;;;;24.80;39.41;102455.81;5038504;28;20448;-59
2021/10/11 10:49:47;;;;;;;6.18;0.90;;;;;;;24.78;39.47;102465.22;5033474;28;20029;-59
2021/10/11 10:52:16;;;;;;;12.95;1.27;;;;;;;24.72;40.15;102480.53;5033441;28;20029;-60
2021/10/11 10:54:47;;;;;;;4.80;0.70;;;;;;;24.71;39.64;102467.84;5033413;28;20080;-59
2021/10/11 10:57:17;;;;;;;5.47;1.63;;;;;;;24.70;40.00;102471.63;5033534;28;20466;-60
2021/10/11 10:59:53;;;;;;;8.68;1.60;;;;;;;24.77;39.77;102474.47;5033495;28;20037;-60
2021/10/11 11:02:18;;;;;;;11.32;1.13;;;;;;;24.81;39.85;102476.72;5033522;28;20386;-59
2021/10/11 11:05:10;;;;;;;4.38;1.25;;;;;;;24.87;39.98;102470.50;5015766;28;20029;-60
2021/10/11 11:07:37;;;;;;;5.55;2.28;;;;;;;24.92;39.87;102467.22;5010826;28;20033;-59
2021/10/11 11:10:20;;;;;;;6.00;0.98;;;;;;;24.99;40.02;102470.06;5015429;28;20061;-60
2021/10/11 11:12:56;;;;;;;5.40;1.65;;;;;;;25.04;39.37;102470.38;5033353;28;20109;-59